createdAt,value
2023-03-05T00:01:52.080Z,222.00
2023-03-05T00:06:52.409Z,188.60
2023-03-05T00:11:49.727Z,293.40
2023-03-05T00:16:51.103Z,282.70
2023-03-05T00:21:51.219Z,181.60
2023-03-05T00:26:48.562Z,167.30
2023-03-05T00:31:48.707Z,141.50
2023-03-05T00:36:46.843Z,187.90
2023-03-05T00:41:46.179Z,211.40
2023-03-05T00:46:45.542Z,193.00
2023-03-05T00:51:44.675Z,179.40
2023-03-05T00:56:43.961Z,170.00
2023-03-05T01:01:43.370Z,160.20
2023-03-05T01:06:42.483Z,147.10
2023-03-05T01:11:42.769Z,145.20
2023-03-05T01:16:41.039Z,123.80
2023-03-05T01:21:40.341Z,118.30
2023-03-05T01:26:38.658Z,108.70
2023-03-05T01:31:39.082Z,109.90
2023-03-05T01:36:38.295Z,103.60
2023-03-05T01:41:37.446Z,89.90
2023-03-05T01:46:36.598Z,89.20
2023-03-05T01:51:35.733Z,89.70
2023-03-05T01:56:36.048Z,82.80
2023-03-05T02:01:35.362Z,78.30
2023-03-05T02:06:33.658Z,72.80
2023-03-05T02:11:33.956Z,67.80
2023-03-05T02:16:32.278Z,64.20
2023-03-05T02:21:31.373Z,63.50
2023-03-05T02:26:30.690Z,57.10
2023-03-05T02:31:30.060Z,56.20
2023-03-05T02:36:30.180Z,54.30
2023-03-05T02:41:28.299Z,54.50
2023-03-05T02:46:26.588Z,51.90
2023-03-05T02:51:27.772Z,49.50
2023-03-05T02:56:27.939Z,46.60
2023-03-05T03:01:26.138Z,45.70
2023-03-05T03:06:24.348Z,45.70
2023-03-05T03:11:23.528Z,41.00
2023-03-05T03:16:22.738Z,39.90
2023-03-05T03:21:21.971Z,38.80
2023-03-05T03:26:24.205Z,38.80
2023-03-05T03:31:20.510Z,37.70
2023-03-05T03:36:19.535Z,34.00
2023-03-05T03:41:19.839Z,34.10
2023-03-05T03:46:19.182Z,32.00
2023-03-05T03:51:17.478Z,32.80
2023-03-05T03:56:16.797Z,31.20
2023-03-05T04:01:16.121Z,30.20
2023-03-05T04:06:16.490Z,29.20
2023-03-05T04:11:16.582Z,28.80
2023-03-05T04:16:14.916Z,26.50
2023-03-05T04:21:13.063Z,26.50
2023-03-05T04:26:12.368Z,24.20
2023-03-05T04:31:11.959Z,24.40
2023-03-05T04:36:10.901Z,25.70
2023-03-05T04:41:12.045Z,26.60
2023-03-05T04:46:09.191Z,24.40
2023-03-05T04:51:09.318Z,23.20
2023-03-05T04:56:08.806Z,23.50
2023-03-05T05:01:06.928Z,23.10
2023-03-05T05:06:06.256Z,22.10
2023-03-05T05:11:06.426Z,20.90
2023-03-05T05:16:05.818Z,21.60
2023-03-05T05:21:04.956Z,20.70
2023-03-05T05:26:03.091Z,21.10
2023-03-05T05:31:02.402Z,21.30
2023-03-05T05:36:05.819Z,21.60
2023-03-05T05:41:00.903Z,18.80
2023-03-05T05:46:01.319Z,19.40
2023-03-05T05:50:59.472Z,20.40
2023-03-05T05:55:59.800Z,21.10
2023-03-05T06:00:57.921Z,20.70
2023-03-05T06:05:57.131Z,20.80
2023-03-05T06:10:58.288Z,18.80
2023-03-05T06:15:55.557Z,18.50
2023-03-05T06:20:55.842Z,21.60
2023-03-05T06:25:56.146Z,20.60
2023-03-05T06:30:54.546Z,21.30
2023-03-05T06:35:52.709Z,19.00
2023-03-05T06:40:52.860Z,18.00
2023-03-05T06:45:53.250Z,17.50
2023-03-05T06:50:50.402Z,18.10
2023-03-05T06:56:31.590Z,17.10
2023-03-05T07:00:48.817Z,16.40
2023-03-05T07:05:49.176Z,17.40
2023-03-05T07:10:47.481Z,17.60
2023-03-05T07:15:48.834Z,18.90
2023-03-05T07:20:46.933Z,18.10
2023-03-05T07:25:47.246Z,18.50
2023-03-05T07:30:45.660Z,17.90
2023-03-05T07:35:43.794Z,18.80
2023-03-05T07:40:45.137Z,19.50
2023-03-05T07:45:44.507Z,17.90
2023-03-05T07:50:41.730Z,18.90
2023-03-05T07:55:41.855Z,18.10
2023-03-05T08:00:40.149Z,19.60
2023-03-05T08:05:39.473Z,16.40
2023-03-05T08:10:39.788Z,18.30
2023-03-05T08:15:39.127Z,19.10
2023-03-05T08:20:37.426Z,16.10
2023-03-05T08:25:36.734Z,16.90
2023-03-05T08:30:37.041Z,17.60
2023-03-05T08:35:35.356Z,17.40
2023-03-05T08:40:34.506Z,18.00
2023-03-05T08:45:33.837Z,16.30
2023-03-05T08:50:33.173Z,19.60
2023-03-05T08:55:34.482Z,19.30
2023-03-05T09:00:31.803Z,20.10
2023-03-05T09:05:31.934Z,13.80
2023-03-05T09:10:31.215Z,32.90
2023-03-05T09:15:29.519Z,34.20
2023-03-05T09:20:28.841Z,35.50
2023-03-05T09:25:28.136Z,36.30
2023-03-05T09:30:27.449Z,36.10
2023-03-05T09:35:26.773Z,38.40
2023-03-05T09:40:27.116Z,36.20
2023-03-05T09:45:26.300Z,37.30
2023-03-05T09:50:25.463Z,37.20
2023-03-05T09:55:23.689Z,40.00
2023-03-05T10:00:22.870Z,71.30
2023-03-05T10:05:21.984Z,164.50
2023-03-05T10:10:22.284Z,135.20
2023-03-05T10:15:21.585Z,169.20
2023-03-05T10:20:20.906Z,110.20
2023-03-05T10:25:19.042Z,145.90
2023-03-05T10:30:19.404Z,227.10
2023-03-05T10:35:17.425Z,126.00
2023-03-05T10:40:18.707Z,99.30
2023-03-05T10:45:17.874Z,76.60
2023-03-05T10:50:16.135Z,60.30
2023-03-05T10:55:15.442Z,52.00
2023-03-05T11:00:13.819Z,63.50
2023-03-05T11:05:15.196Z,49.30
2023-03-05T11:10:12.098Z,45.30
2023-03-05T11:15:12.541Z,39.00
2023-03-05T11:20:11.474Z,38.40
2023-03-05T11:25:10.083Z,37.20
2023-03-05T11:30:09.066Z,35.40
2023-03-05T11:35:09.383Z,36.30
2023-03-05T11:40:07.827Z,35.50
2023-03-05T11:45:08.236Z,28.70
2023-03-05T11:50:05.220Z,29.50
2023-03-05T11:55:05.369Z,26.30
2023-03-05T12:00:04.539Z,27.90
2023-03-05T12:05:03.665Z,28.10
2023-03-05T12:10:04.329Z,28.70
2023-03-05T12:15:04.344Z,28.20
2023-03-05T12:20:01.788Z,26.90
2023-03-05T12:25:01.658Z,27.80
2023-03-05T12:30:00.383Z,28.90
2023-03-05T12:35:00.713Z,29.30
2023-03-05T12:39:58.707Z,30.10
2023-03-05T12:45:00.882Z,27.90
2023-03-05T12:49:57.402Z,28.30
2023-03-05T12:54:57.482Z,27.50
2023-03-05T12:59:55.627Z,26.80
2023-03-05T13:04:54.781Z,25.70
2023-03-05T13:09:53.916Z,25.90
2023-03-05T13:14:55.131Z,26.50
2023-03-05T13:19:52.477Z,25.00
2023-03-05T13:24:52.144Z,26.60
2023-03-05T13:29:51.310Z,25.10
2023-03-05T13:34:51.107Z,25.30
2023-03-05T13:39:50.815Z,26.20
2023-03-05T13:44:50.612Z,24.70
2023-03-05T13:49:47.917Z,25.40
2023-03-05T13:54:47.564Z,26.00
2023-03-05T13:59:46.543Z,26.40
2023-03-05T14:04:47.034Z,25.40
2023-03-05T14:09:45.383Z,26.00
2023-03-05T14:14:44.559Z,24.40
2023-03-05T14:19:45.595Z,24.30
2023-03-05T14:24:46.740Z,38.10
2023-03-05T14:29:43.210Z,162.30
2023-03-05T14:34:41.402Z,65.20
2023-03-05T14:39:40.729Z,77.00
2023-03-05T14:44:40.848Z,45.30
2023-03-05T14:49:40.987Z,48.70
2023-03-05T14:54:38.343Z,42.10
2023-03-05T14:59:37.533Z,47.00
2023-03-05T15:04:37.337Z,38.70
2023-03-05T15:09:37.782Z,36.00
2023-03-05T15:14:35.386Z,33.40
2023-03-05T15:19:35.589Z,30.60
2023-03-05T15:24:35.381Z,28.90
2023-03-05T15:29:33.733Z,29.50
2023-03-05T15:34:33.308Z,25.90
2023-03-05T15:39:34.416Z,28.00
2023-03-05T15:44:31.616Z,25.80
2023-03-05T15:49:30.126Z,23.80
2023-03-05T15:54:29.354Z,26.20
2023-03-05T15:59:29.252Z,25.30
2023-03-05T16:04:26.825Z,23.20
2023-03-05T16:09:27.061Z,23.10
2023-03-05T16:14:27.302Z,22.20
2023-03-05T16:19:25.472Z,205.00
2023-03-05T16:24:28.915Z,97.00
2023-03-05T16:29:23.939Z,81.80
2023-03-05T16:34:21.923Z,46.10
2023-03-05T16:39:22.344Z,38.60
2023-03-05T16:44:22.967Z,128.00
2023-03-05T16:49:20.753Z,119.70
2023-03-05T16:54:20.093Z,62.20
2023-03-05T16:59:19.865Z,108.00
2023-03-05T17:04:19.111Z,75.10
2023-03-05T17:09:18.185Z,69.20
2023-03-05T17:14:17.404Z,57.00
2023-03-05T17:19:16.796Z,55.90
2023-03-05T17:24:19.641Z,42.10
2023-03-05T17:29:15.978Z,38.30
2023-03-05T17:34:13.261Z,32.40
2023-03-05T17:39:13.497Z,30.80
2023-03-05T17:44:12.851Z,29.60
2023-03-05T17:49:12.052Z,27.50
2023-03-05T17:54:13.340Z,25.60
2023-03-05T17:59:12.588Z,27.90
2023-03-05T18:04:10.907Z,25.50
2023-03-05T18:09:12.004Z,22.60
2023-03-05T18:14:08.282Z,23.50
2023-03-05T18:19:07.236Z,45.90
2023-03-05T18:24:06.876Z,64.00
2023-03-05T18:29:06.174Z,62.00
2023-03-05T18:34:05.124Z,88.40
2023-03-05T18:39:05.581Z,79.40
2023-03-05T18:44:04.902Z,67.10
2023-03-05T18:49:03.976Z,54.10
2023-03-05T18:54:02.987Z,42.30
2023-03-05T18:59:01.493Z,37.60
2023-03-05T19:04:02.858Z,37.40
2023-03-05T19:08:59.995Z,28.30
2023-03-05T19:13:59.293Z,28.80
2023-03-05T19:18:59.552Z,28.00
2023-03-05T19:24:00.196Z,24.80
2023-03-05T19:28:59.042Z,26.10
2023-03-05T19:33:56.325Z,25.50
2023-03-05T19:38:56.663Z,56.90
2023-03-05T19:43:55.580Z,51.40
2023-03-05T19:48:55.065Z,45.20
2023-03-05T19:53:55.078Z,41.50
2023-03-05T19:58:54.551Z,62.20
2023-03-05T20:03:52.653Z,74.00
2023-03-05T20:08:51.295Z,59.00
2023-03-05T20:13:51.098Z,48.40
2023-03-05T20:18:50.286Z,93.80
2023-03-05T20:23:49.602Z,82.70
2023-03-05T20:28:53.038Z,70.30
2023-03-05T20:33:47.497Z,70.90
2023-03-05T20:38:47.806Z,92.20
2023-03-05T20:43:46.114Z,78.70
2023-03-05T20:48:45.477Z,59.50
2023-03-05T20:53:44.580Z,58.70
2023-03-05T20:58:44.653Z,54.80
2023-03-05T21:03:49.458Z,63.80
2023-03-05T21:08:43.260Z,61.30
2023-03-05T21:13:41.496Z,56.80
2023-03-05T21:18:40.495Z,67.00
2023-03-05T21:23:40.895Z,73.20
2023-03-05T21:28:39.066Z,79.30
2023-03-05T21:33:39.399Z,56.60
2023-03-05T21:38:38.373Z,65.80
2023-03-05T21:43:36.880Z,77.40
2023-03-05T21:48:35.875Z,62.90
2023-03-05T21:53:34.927Z,72.50
2023-03-05T21:58:34.135Z,94.10
2023-03-05T22:03:33.370Z,65.80
2023-03-05T22:08:32.663Z,71.00
2023-03-05T22:13:31.842Z,77.20
2023-03-05T22:18:31.038Z,88.20
2023-03-05T22:23:31.226Z,109.70
2023-03-05T22:28:29.445Z,74.70
2023-03-05T22:33:28.646Z,72.30
2023-03-05T22:38:28.838Z,97.90
2023-03-05T22:43:26.991Z,76.40
2023-03-05T22:48:28.549Z,69.40
2023-03-05T22:53:25.289Z,62.30
2023-03-05T22:58:25.464Z,52.10
2023-03-05T23:03:24.705Z,47.40
2023-03-05T23:08:22.881Z,66.50
2023-03-05T23:13:24.102Z,73.40
2023-03-05T23:18:21.284Z,66.10
2023-03-05T23:23:21.458Z,54.50
2023-03-05T23:28:23.751Z,61.20
2023-03-05T23:33:19.900Z,78.80
2023-03-05T23:38:19.062Z,69.00
2023-03-05T23:43:17.242Z,61.30
2023-03-05T23:48:19.093Z,62.80
2023-03-05T23:53:16.680Z,87.10
2023-03-05T23:58:16.862Z,73.00
